• Join FlightAware (Why Join?)
  • Login
  • US Flag 
05:25PM EDT


 

Airport Tracker/Info


-or-


 

Live Flight TrackerFlight Track Log ✈ EJA982 ✈ 17-May-2013 ✈ KIAD - KBKL

Flight Track Log - Related Links

Times and Time Zones

All times are in EDT time to prevent confusion due to time zone crossing. See the EJA982 flight status page for this flight to view local times or setup timezone preferences in your user account.

Time Position Orientation Groundspeed Altitude Reporting Facility
EDT Latitude Longitude Course Direction KTS MPH feet Rate Location/Type
02:11PM 38.9667 -77.5167 351° North 251 289 2,800  Level Potomac TRACON
02:12PM 39.0500 -77.5333 351° North 286 329 4,500 3,540 Climbing Potomac TRACON
02:13PM 39.1167 -77.5667 339° North 295 339 10,000 5,040 Climbing Potomac TRACON
02:14PM 39.2000 -77.6167 335° Northwest 302 348 14,600 3,360 Climbing Potomac TRACON
02:15PM 39.2786 -77.6936 323° Northwest 365 420 17,100 1,200 Climbing Washington Center
02:16PM 39.3625 -77.7792 322° Northwest 382 440 17,100 420 Level Washington Center
02:17PM 39.4611 -77.8494 331° Northwest 396 456 18,000 1,560 Climbing Washington Center
02:19PM 39.6133 -77.9475 334° Northwest 391 450 21,300 1,980 Climbing Cleveland Center
02:20PM 39.7086 -78.0114 333° Northwest 386 444 23,400 2,160 Climbing Cleveland Center
02:21PM 39.8039 -78.0725 334° Northwest 381 438 25,700 1,260 Climbing Cleveland Center
02:22PM 39.8833 -78.1753 315° West 381 438 26,000 120 Climbing Cleveland Center
02:23PM 39.9592 -78.3189 305° West 411 473 26,000  Level Cleveland Center
02:24PM 40.0367 -78.4517 307° West 439 505 26,000  Level Cleveland Center
02:25PM 40.1144 -78.5878 307° West 454 522 26,000  Level Cleveland Center
02:26PM 40.1875 -78.7214 306° West 460 529 26,000  Level Cleveland Center
02:27PM 40.2625 -78.8528 307° West 465 535 26,000  Level Cleveland Center
02:28PM 40.3375 -78.9869 306° West 465 535 26,000  Level Cleveland Center
02:29PM 40.4142 -79.1186 307° West 465 535 26,000  Level Cleveland Center
02:30PM 40.4867 -79.2536 305° West 465 535 26,000  Level Cleveland Center
02:31PM 40.5569 -79.3753 307° West 460 529 26,000  Level Cleveland Center
02:32PM 40.6292 -79.5053 306° West 460 529 26,000 -300 Level Cleveland Center
02:33PM 40.7033 -79.6383 306° West 460 529 25,500 -780 Descending Cleveland Center
02:34PM 40.7750 -79.7689 306° West 450 518 24,500 -1,020 Descending Cleveland Center
02:35PM 40.8447 -79.8997 305° West 440 506 23,500 -1,020 Descending Cleveland Center
02:36PM 40.9122 -80.0281 305° West 440 506 22,500 -1,020 Descending Cleveland Center
02:37PM 40.9814 -80.1514 307° West 435 501 21,500 -1,020 Descending Cleveland Center
02:38PM 41.0508 -80.2775 306° West 430 495 20,500 -1,020 Descending Cleveland Center
02:39PM 41.1156 -80.4011 305° West 424 488 19,500 -1,260 Descending Cleveland Center
02:40PM 41.1803 -80.5253 305° West 413 475 18,000 -1,860 Descending Cleveland Center
02:41PM 41.2428 -80.6439 305° West 407 468 15,800 -2,280 Descending Cleveland Center
02:42PM 41.3136 -80.7794 305° West 402 463 13,500 -2,400 Descending Cleveland Center
02:42PM 41.3364 -80.8211 306° West 398 458 12,500 -2,220 Descending Cleveland Center
02:43PM 41.3739 -80.8903 306° West 395 455 11,300 -1,980 Descending Cleveland Center
02:43PM 41.3903 -80.9264 301° West 325 374 10,500 -1,800 Descending Cleveland Center
02:44PM 41.4214 -80.9847 305° West 352 405 9,500 -1,680 Descending Cleveland Center
02:44PM 41.4400 -81.0236 303° West 268 308 8,800 -1,500 Descending Cleveland Center
02:45PM 41.4650 -81.0653 309° West 294 338 8,000 -1,500 Descending Cleveland Center
02:45PM 41.4794 -81.0986 300° West 254 292 7,300 -1,440 Descending Cleveland Center
02:46PM 41.5022 -81.1403 306° West 259 298 6,600 -1,800 Descending Cleveland Center
02:46PM 41.5144 -81.1767 294° West 238 274 5,500 -2,520 Descending Cleveland Center
02:47PM 41.5225 -81.2294 282° West 240 276 4,100 -1,500 Descending Cleveland Center
02:47PM 41.5283 -81.2739 280° West 274 315 4,000 -120 Descending Cleveland Center
02:48PM 41.5364 -81.3239 282° West 256 295 4,000  Level Cleveland Center
02:48PM 41.5425 -81.3683 280° West 255 293 4,000  Level Cleveland Center
02:49PM 41.5483 -81.4156 279° West 256 295 4,000  Level Cleveland Center
02:49PM 41.5542 -81.4628 279° West 252 290 4,000 -120 Level Cleveland Center
02:50PM 41.5703 -81.5600 283° West 267 307 3,900 -600 Descending Cleveland Center
02:51PM 41.5694 -81.6461 269° West 227 261 2,800 -960 Descending Cleveland Center
02:52PM 41.5417 -81.7178 243° Southwest 212 244 2,000 -780 Descending Cleveland Center
02:53PM 41.5039 -81.7256 189° South 151 174 1,300 -720 Descending Cleveland Center
02:55PM 41.5175 -81.6833 66° East  Level Estimated
03:02PM 41.5175 -81.6833 66° East  Level Estimated